KPAH/PAH METAR and TAF weather

Enter ICAO airport designator
Station Type Date Time Source
KPAH METAR 2019/02/21 15:53 UTC NOAA

KPAH 211553Z 06010KT 10SM CLR 06/00 A3023 RMK AO2 SLP237 T00560000


Station Type Date Time Source
KPAH Decoded METAR 2019/02/21 15:53 UTC NOAA

BARKLEY REGIONAL AIRPORT, KY, United States (KPAH) 37-03N 088-46W 118M
Feb 21, 2019 - 10:53 AM EST / 2019.02.21 1553 UTC
Wind: from the ENE (060 degrees) at 12 MPH (10 KT):0
Visibility: 10 mile(s):0
Sky conditions: clear
Temperature: 42.1 F (5.6 C)
Dew Point: 32.0 F (0.0 C)
Relative Humidity: 67%
Pressure (altimeter): 30.23 in. Hg (1023 hPa)
ob: KPAH 211553Z 06010KT 10SM CLR 06/00 A3023 RMK AO2 SLP237 T00560000
cycle: 16

Station Type Date Time Source
KPAH TAF 2019/02/21 12:22 UTC NOAA

TAF KPAH 211120Z 2112/2212 00000KT P6SM MIFG SCT030
FM211500 04005KT P6SM SCT100 BKN250
FM220000 05006KT P6SM SCT050 BKN100
FM220600 05008KT P6SM VCSH SCT025 BKN050
TEMPO 2208/2212 4SM -SHRA BR BKN025


Example: see airport list